Time;durP1;ratioP1;P1;durP2;ratioP2;P2;SDS_P1;SDS_P2;PMS_P1;PMS_P2;Temp;Humidity;BMP_temperature;BMP_pressure;BME280_temperature;BME280_humidity;BME280_pressure;Samples;Min_cycle;Max_cycle;Signal;HPM_P1;HPM_P2
2021/08/19 00:01:37;;;;;;;4.28;2.15;;;;;;;16.13;70.25;100295.76;1761666;81;20969;-90
2021/08/19 00:04:04;;;;;;;4.17;3.00;;;;;;;16.09;70.48;100296.22;1761734;80;21453;-90
2021/08/19 00:06:37;;;;;;;4.20;2.02;;;;;;;16.08;70.73;100294.44;1761336;81;21407;-90
2021/08/19 00:09:07;;;;;;;3.12;2.30;;;;;;;16.07;70.85;100296.67;1761544;81;21030;-90
2021/08/19 00:11:35;;;;;;;2.17;1.90;;;;;;;16.06;70.96;100286.05;1738521;81;21429;-89
2021/08/19 00:14:08;;;;;;;3.62;1.85;;;;;;;16.03;71.08;100283.41;1761670;81;20980;-90
2021/08/19 00:16:36;;;;;;;2.17;1.95;;;;;;;16.02;71.19;100286.52;1737946;81;21434;-90
2021/08/19 00:19:03;;;;;;;2.62;1.75;;;;;;;16.00;71.30;100287.42;1738256;81;21734;-90
2021/08/19 00:21:30;;;;;;;2.67;2.10;;;;;;;15.97;71.38;100282.98;1737006;81;20964;-90
2021/08/19 00:23:58;;;;;;;2.40;1.90;;;;;;;15.98;71.43;100285.22;1761873;81;20967;-89
2021/08/19 00:26:26;;;;;;;3.95;2.02;;;;;;;16.00;71.44;100284.31;1761558;80;21417;-90
2021/08/19 00:28:55;;;;;;;2.77;2.10;;;;;;;16.01;71.47;100278.13;1761806;81;20992;-89
2021/08/19 00:31:25;;;;;;;2.60;1.90;;;;;;;16.03;71.53;100284.73;1761669;80;21816;-89
2021/08/19 00:33:54;;;;;;;4.05;1.90;;;;;;;16.04;71.49;100273.23;1761623;81;20980;-89
2021/08/19 00:36:23;;;;;;;2.37;1.65;;;;;;;16.06;71.51;100282.07;1761874;81;20976;-90
2021/08/19 00:38:49;;;;;;;2.17;1.75;;;;;;;16.06;71.58;100278.96;1739353;81;21410;-90
2021/08/19 00:41:19;;;;;;;3.05;1.77;;;;;;;16.08;71.52;100288.25;1761618;81;21469;-90
2021/08/19 00:43:49;;;;;;;3.00;1.55;;;;;;;16.10;71.58;100275.43;1738682;81;21743;-90
2021/08/19 00:46:38;;;;;;;2.08;1.60;;;;;;;16.15;71.61;100278.50;1761897;81;21013;-90
2021/08/19 00:49:07;;;;;;;3.95;1.30;;;;;;;16.17;71.56;100278.91;1733441;82;21012;-89
2021/08/19 00:51:48;;;;;;;1.52;1.10;;;;;;;16.20;71.63;100279.33;1733246;82;21003;-90
2021/08/19 00:54:23;;;;;;;1.17;1.07;;;;;;;16.24;71.72;100271.81;1695639;82;21540;-89
2021/08/19 00:56:55;;;;;;;1.45;1.15;;;;;;;16.25;71.72;100275.76;1732756;80;22416;-89
2021/08/19 00:59:29;;;;;;;2.00;1.32;;;;;;;16.25;71.79;100274.43;1732861;82;20959;-89
2021/08/19 01:01:56;;;;;;;1.25;1.15;;;;;;;16.26;71.83;100274.01;1733375;82;21008;-90
2021/08/19 01:04:23;;;;;;;1.62;1.47;;;;;;;16.26;71.88;100267.37;1733233;82;20972;-89
2021/08/19 01:06:55;;;;;;;1.77;1.55;;;;;;;16.26;71.97;100262.06;1733239;82;20936;-89
2021/08/19 01:09:21;;;;;;;2.55;2.17;;;;;;;16.26;72.07;100259.41;1732869;82;22493;-88
2021/08/19 01:11:47;;;;;;;3.50;2.00;;;;;;;16.24;72.15;100258.08;1733017;82;20999;-88
2021/08/19 01:14:18;;;;;;;2.77;2.25;;;;;;;16.28;72.21;100260.27;1733131;82;21485;-88
2021/08/19 01:16:45;;;;;;;3.22;2.60;;;;;;;16.31;72.26;100265.55;1732631;81;21039;-89
2021/08/19 01:19:20;;;;;;;3.62;2.65;;;;;;;16.32;72.32;100260.23;1732946;82;20976;-88
2021/08/19 01:21:49;;;;;;;3.80;2.85;;;;;;;16.32;72.31;100264.67;1733299;82;21903;-89
2021/08/19 01:24:19;;;;;;;3.35;3.02;;;;;;;16.32;72.38;100260.23;1740449;81;21019;-89
2021/08/19 01:26:44;;;;;;;5.22;3.15;;;;;;;16.32;72.41;100250.06;1760581;80;21056;-87
2021/08/19 01:29:11;;;;;;;4.67;3.77;;;;;;;16.31;72.49;100264.22;1761524;80;21008;-91
2021/08/19 01:31:41;;;;;;;5.90;3.70;;;;;;;16.31;72.62;100265.55;1761548;81;21000;-90
2021/08/19 01:34:06;;;;;;;4.25;3.70;;;;;;;16.31;72.74;100257.16;1761051;80;21767;-89
2021/08/19 01:36:39;;;;;;;7.50;3.77;;;;;;;16.29;72.83;100260.69;1761520;81;20995;-90
2021/08/19 01:39:06;;;;;;;5.40;3.50;;;;;;;16.31;72.92;100250.94;1762219;81;21027;-89
2021/08/19 01:41:33;;;;;;;5.50;3.55;;;;;;;16.30;72.91;100251.84;1761266;80;21035;-90
2021/08/19 01:44:00;;;;;;;6.45;5.08;;;;;;;16.32;72.96;100249.61;1765108;81;21454;-89
2021/08/19 01:46:32;;;;;;;6.90;3.77;;;;;;;16.32;72.99;100251.39;1761706;81;21242;-90
2021/08/19 01:49:02;;;;;;;5.75;4.20;;;;;;;16.30;72.94;100251.39;1714653;81;20964;-89
2021/08/19 01:51:27;;;;;;;5.28;3.52;;;;;;;16.29;73.01;100243.00;1761242;81;21472;-89
2021/08/19 01:53:56;;;;;;;6.60;3.90;;;;;;;16.30;73.03;100245.20;1761952;81;21027;-90
2021/08/19 01:56:23;;;;;;;7.37;3.62;;;;;;;16.29;73.02;100243.00;1761841;81;21024;-90
2021/08/19 01:58:56;;;;;;;4.42;3.75;;;;;;;16.29;73.06;100243.43;1738092;81;21003;-89
2021/08/19 02:01:22;;;;;;;5.60;3.77;;;;;;;16.30;73.14;100237.23;1760060;79;21028;-90
2021/08/19 02:03:49;;;;;;;4.80;3.77;;;;;;;16.30;73.17;100243.42;1761914;81;20952;-89
2021/08/19 02:06:23;;;;;;;6.30;4.37;;;;;;;16.31;73.17;100237.23;1761271;81;20988;-88
2021/08/19 02:08:58;;;;;;;4.95;3.25;;;;;;;16.31;73.21;100238.98;1738376;81;21523;-89
2021/08/19 02:11:24;;;;;;;6.72;3.70;;;;;;;16.31;73.16;100233.25;1761071;80;21760;-90
2021/08/19 02:13:54;;;;;;;6.40;3.70;;;;;;;16.31;73.23;100234.58;1761585;81;20964;-89
2021/08/19 02:16:20;;;;;;;5.25;3.87;;;;;;;16.33;73.22;100240.76;1738186;80;20952;-89
2021/08/19 02:18:48;;;;;;;7.22;3.65;;;;;;;16.31;73.16;100245.62;1761389;81;20960;-88
2021/08/19 02:21:19;;;;;;;4.50;3.50;;;;;;;16.31;73.23;100239.89;1761622;81;21000;-89
2021/08/19 02:23:44;;;;;;;4.87;3.58;;;;;;;16.29;73.16;100235.04;1760901;79;22435;-89
2021/08/19 02:26:11;;;;;;;8.33;3.80;;;;;;;16.30;73.22;100235.91;1761636;81;20985;-89
2021/08/19 02:28:39;;;;;;;3.80;3.08;;;;;;;16.32;73.23;100232.80;1761190;81;20984;-89
2021/08/19 02:31:09;;;;;;;4.22;3.30;;;;;;;16.32;73.25;100227.48;1761670;81;21035;-88
2021/08/19 02:33:35;;;;;;;4.25;3.62;;;;;;;16.32;73.22;100223.50;1761306;79;20988;-89
2021/08/19 02:36:01;;;;;;;4.72;3.37;;;;;;;16.30;73.22;100219.52;1761847;81;21657;-89
2021/08/19 02:38:28;;;;;;;6.22;3.22;;;;;;;16.30;73.23;100217.32;1761589;81;20948;-88
2021/08/19 02:40:55;;;;;;;4.08;3.27;;;;;;;16.31;73.23;100219.06;1736971;81;21477;-89
2021/08/19 02:43:22;;;;;;;4.70;3.58;;;;;;;16.32;73.25;100224.38;1761286;81;21024;-88
2021/08/19 02:45:49;;;;;;;4.70;3.50;;;;;;;16.32;73.20;100227.03;1761738;81;20948;-89
2021/08/19 02:48:18;;;;;;;3.30;2.95;;;;;;;16.30;73.18;100220.84;1761423;80;21398;-88
2021/08/19 02:50:48;;;;;;;6.87;3.60;;;;;;;16.28;73.16;100221.31;1761687;81;20952;-88
2021/08/19 02:53:15;;;;;;;4.80;3.67;;;;;;;16.27;73.20;100212.02;1760877;81;20956;-88
2021/08/19 02:55:41;;;;;;;4.50;3.72;;;;;;;16.25;73.21;100209.82;1761504;79;21044;-87
2021/08/19 02:58:12;;;;;;;4.40;3.50;;;;;;;16.24;73.23;100197.45;1761613;81;20968;-88
2021/08/19 03:00:37;;;;;;;4.20;3.70;;;;;;;16.26;73.32;100206.29;1760323;81;22611;-88
2021/08/19 03:03:04;;;;;;;4.20;3.33;;;;;;;16.25;73.33;100208.04;1761640;81;21449;-88
2021/08/19 03:05:33;;;;;;;5.30;3.62;;;;;;;16.24;73.25;100208.08;1761735;81;20956;-88
2021/08/19 03:08:01;;;;;;;6.30;3.85;;;;;;;16.24;73.33;100206.75;1761499;81;20972;-88
2021/08/19 03:10:28;;;;;;;4.37;3.98;;;;;;;16.23;73.40;100203.64;1761651;81;21658;-88
2021/08/19 03:12:58;;;;;;;5.75;3.95;;;;;;;16.23;73.29;100208.50;1761792;81;21794;-89
2021/08/19 03:15:25;;;;;;;4.12;3.55;;;;;;;16.21;73.25;100214.72;1761700;81;20971;-89
2021/08/19 03:17:52;;;;;;;6.33;4.12;;;;;;;16.17;73.26;100219.63;1761632;80;21004;-88
2021/08/19 03:20:21;;;;;;;5.70;4.12;;;;;;;16.16;73.33;100224.06;1761570;81;21151;-89
2021/08/19 03:22:50;;;;;;;8.23;4.08;;;;;;;16.17;73.37;100219.63;1761543;79;21004;-89
2021/08/19 03:25:16;;;;;;;6.92;3.85;;;;;;;16.18;73.40;100222.70;1761475;80;21798;-89
2021/08/19 03:27:44;;;;;;;3.92;3.40;;;;;;;16.19;73.31;100214.73;1736850;81;21015;-88
2021/08/19 03:30:14;;;;;;;6.25;3.75;;;;;;;16.20;73.32;100211.62;1761748;80;21639;-88
2021/08/19 03:32:46;;;;;;;5.22;4.05;;;;;;;16.19;73.37;100206.77;1740176;81;20972;-89
2021/08/19 03:35:16;;;;;;;5.20;3.80;;;;;;;16.19;73.26;100217.84;1765647;80;21001;-89
2021/08/19 03:37:41;;;;;;;6.70;4.40;;;;;;;16.18;73.26;100209.00;1760601;81;22491;-88
2021/08/19 03:40:09;;;;;;;5.15;3.55;;;;;;;16.20;73.32;100214.27;1763196;81;20980;-90
2021/08/19 03:42:37;;;;;;;6.15;3.80;;;;;;;16.22;73.34;100212.06;1761697;80;20987;-89
2021/08/19 03:45:06;;;;;;;7.20;4.22;;;;;;;16.26;73.36;100217.78;1761485;81;21536;-89
2021/08/19 03:47:37;;;;;;;4.62;3.72;;;;;;;16.29;73.34;100215.55;1765619;80;21476;-88
2021/08/19 03:50:09;;;;;;;6.47;4.70;;;;;;;16.32;73.31;100210.22;1761373;81;22711;-89
2021/08/19 03:52:43;;;;;;;4.08;3.67;;;;;;;16.34;73.28;100208.43;1761631;81;20953;-89
2021/08/19 03:55:10;;;;;;;4.30;3.85;;;;;;;16.37;73.24;100203.11;1761860;80;20956;-89
2021/08/19 03:57:40;;;;;;;5.15;3.83;;;;;;;16.38;73.18;100201.33;1737171;81;21468;-89
2021/08/19 04:00:08;;;;;;;7.85;3.90;;;;;;;16.39;73.18;100207.09;1761616;81;21003;-87
2021/08/19 04:02:35;;;;;;;6.87;3.80;;;;;;;16.42;73.17;100209.28;1761794;81;21787;-88
2021/08/19 04:05:02;;;;;;;5.05;4.00;;;;;;;16.45;73.12;100209.23;1761673;81;21485;-88
2021/08/19 04:07:32;;;;;;;4.40;3.52;;;;;;;16.49;73.11;100207.44;1761771;81;20988;-88
2021/08/19 04:09:59;;;;;;;7.25;4.20;;;;;;;16.51;73.04;100214.48;1737805;81;21101;-89
2021/08/19 04:12:29;;;;;;;4.28;3.87;;;;;;;16.51;72.94;100212.29;1761327;81;21004;-88
2021/08/19 04:14:59;;;;;;;6.25;3.33;;;;;;;16.55;72.95;100223.77;1761241;80;22353;-89
2021/08/19 04:17:26;;;;;;;5.45;4.00;;;;;;;16.57;72.96;100217.55;1722856;81;20994;-88
2021/08/19 04:19:54;;;;;;;5.33;3.62;;;;;;;16.60;72.91;100228.61;1728822;81;21470;-90
2021/08/19 04:22:20;;;;;;;7.40;3.85;;;;;;;16.62;72.88;100219.72;1729053;81;21331;-88
2021/08/19 04:24:49;;;;;;;6.80;4.20;;;;;;;16.65;72.88;100227.68;1728885;81;20977;-89
2021/08/19 04:27:22;;;;;;;6.85;4.08;;;;;;;16.68;72.84;100223.65;1729133;81;21778;-91
2021/08/19 04:29:53;;;;;;;4.87;3.90;;;;;;;16.71;72.75;100226.75;1697110;83;21470;-90
2021/08/19 04:32:28;;;;;;;7.83;4.12;;;;;;;16.74;72.73;100227.16;1729129;82;21000;-93
2021/08/19 04:35:12;;;;;;;6.58;3.70;;;;;;;16.74;72.60;100228.03;1729781;83;21081;-93
2021/08/19 04:37:42;;;;;;;5.37;3.70;;;;;;;16.76;72.56;100229.35;1702595;83;20961;-89
2021/08/19 04:40:17;;;;;;;4.40;3.60;;;;;;;16.78;72.52;100231.55;1692228;83;20945;-94
2021/08/19 04:42:42;;;;;;;5.28;3.60;;;;;;;16.80;72.48;100229.33;1728952;81;21004;-91
2021/08/19 04:45:20;;;;;;;4.55;3.35;;;;;;;16.81;72.46;100225.76;1699879;83;20959;-92
2021/08/19 04:47:45;;;;;;;5.72;3.27;;;;;;;16.84;72.43;100228.44;1727257;81;20988;-90
2021/08/19 04:50:15;;;;;;;8.53;3.55;;;;;;;16.91;72.43;100225.25;1729252;82;21009;-92
2021/08/19 04:52:45;;;;;;;4.78;3.80;;;;;;;16.99;72.28;100229.20;1729851;83;21876;-91
2021/08/19 04:55:15;;;;;;;6.37;3.75;;;;;;;17.06;72.22;100231.78;1698729;82;20958;-87
2021/08/19 04:57:45;;;;;;;5.15;3.67;;;;;;;17.12;72.07;100232.59;1695195;83;20949;-86
2021/08/19 05:00:13;;;;;;;13.32;3.95;;;;;;;17.17;72.00;100234.77;1728478;81;21084;-86
2021/08/19 05:02:40;;;;;;;3.92;3.52;;;;;;;17.23;71.94;100235.59;1698684;82;20988;-85
2021/08/19 05:05:09;;;;;;;5.75;3.15;;;;;;;17.33;71.87;100235.50;1727889;81;21051;-87
2021/08/19 05:07:44;;;;;;;5.62;3.80;;;;;;;17.41;71.73;100238.94;1728574;81;20984;-86
2021/08/19 05:10:12;;;;;;;5.20;3.42;;;;;;;17.48;71.57;100232.20;1695345;83;20956;-86
2021/08/19 05:12:41;;;;;;;7.50;3.80;;;;;;;17.52;71.30;100234.38;1726131;81;21059;-86
2021/08/19 05:15:09;;;;;;;8.60;4.15;;;;;;;17.56;71.20;100232.10;1718025;81;21026;-85
2021/08/19 05:17:36;;;;;;;6.95;4.05;;;;;;;17.65;71.13;100232.00;1676247;83;21752;-86
2021/08/19 05:20:06;;;;;;;7.72;3.62;;;;;;;17.77;71.05;100234.94;1703104;84;21572;-86
2021/08/19 05:22:36;;;;;;;4.65;3.72;;;;;;;17.91;70.81;100234.81;1676358;83;21158;-86
2021/08/19 05:25:03;;;;;;;4.92;3.92;;;;;;;18.10;70.63;100233.23;1703230;82;20992;-86
2021/08/19 05:27:33;;;;;;;9.05;4.05;;;;;;;18.51;70.67;100229.07;1676380;84;21141;-86
2021/08/19 05:29:59;;;;;;;8.65;3.75;;;;;;;19.65;70.99;100229.20;1703418;82;21784;-86
2021/08/19 05:32:27;;;;;;;6.85;3.50;;;;;;;19.90;68.78;100228.75;1676106;83;21068;-87
2021/08/19 05:34:56;;;;;;;6.47;3.42;;;;;;;19.78;68.04;100233.87;1664126;86;21498;-86
2021/08/19 05:37:25;;;;;;;3.95;3.20;;;;;;;19.63;67.61;100231.03;1676509;84;21057;-86
2021/08/19 05:39:56;;;;;;;5.47;3.98;;;;;;;19.57;67.58;100237.37;1643253;85;21537;-87
2021/08/19 05:42:27;;;;;;;5.65;3.65;;;;;;;19.52;67.34;100233.95;1673016;83;22032;-86
2021/08/19 05:44:55;;;;;;;12.18;4.03;;;;;;;19.40;67.01;100249.72;1642739;86;21041;-86
2021/08/19 05:47:21;;;;;;;4.90;3.70;;;;;;;19.23;66.90;100243.84;1703801;84;21501;-85
2021/08/19 05:49:53;;;;;;;10.93;4.20;;;;;;;19.10;67.08;100243.18;1703610;84;21000;-87
2021/08/19 05:52:20;;;;;;;6.55;3.70;;;;;;;19.01;67.09;100244.25;1676713;83;20997;-86
2021/08/19 05:54:49;;;;;;;7.85;4.00;;;;;;;18.91;67.05;100246.63;1683427;84;21027;-87
2021/08/19 05:57:16;;;;;;;5.10;3.87;;;;;;;18.79;67.02;100254.83;1703694;84;21034;-87
2021/08/19 05:59:47;;;;;;;10.82;4.05;;;;;;;18.64;66.95;100253.29;1676537;83;21044;-87
2021/08/19 06:02:15;;;;;;;6.65;3.72;;;;;;;18.50;67.07;100256.61;1664299;86;21531;-87
2021/08/19 06:04:50;;;;;;;11.30;4.12;;;;;;;18.36;67.14;100260.37;1703608;82;21007;-87
2021/08/19 06:07:15;;;;;;;7.50;4.15;;;;;;;18.28;67.34;100256.92;1703292;84;21762;-87
2021/08/19 06:09:47;;;;;;;4.70;4.17;;;;;;;18.27;67.53;100263.17;1703774;83;21059;-87
2021/08/19 06:12:17;;;;;;;5.60;3.83;;;;;;;18.28;67.57;100258.25;1676826;84;21172;-86
2021/08/19 06:14:45;;;;;;;8.35;4.22;;;;;;;18.35;67.63;100274.58;1703004;84;21012;-86
2021/08/19 06:17:11;;;;;;;6.50;3.72;;;;;;;18.40;67.65;100270.53;1703289;82;21537;-86
2021/08/19 06:19:40;;;;;;;6.30;3.60;;;;;;;18.44;67.70;100274.91;1676651;83;21702;-86
2021/08/19 06:22:12;;;;;;;4.50;3.60;;;;;;;18.56;67.76;100266.73;1664149;86;21044;-86
2021/08/19 06:24:40;;;;;;;4.55;3.40;;;;;;;18.69;67.65;100267.86;1703259;84;21444;-86
2021/08/19 06:27:09;;;;;;;5.55;3.40;;;;;;;18.78;67.37;100273.92;1703744;84;21536;-86
2021/08/19 06:29:40;;;;;;;3.72;3.40;;;;;;;18.84;67.21;100270.30;1655093;85;21430;-86
2021/08/19 06:32:06;;;;;;;4.15;3.45;;;;;;;18.92;67.08;100272.84;1703466;84;21847;-86
2021/08/19 06:34:44;;;;;;;11.55;4.60;;;;;;;19.08;67.05;100268.13;1676294;84;21012;-86
2021/08/19 06:37:05;;;;;;;7.22;3.47;;;;;;;19.22;66.81;100276.78;1662151;85;21039;-86
2021/08/19 06:39:32;;;;;;;9.30;3.77;;;;;;;19.34;66.60;100279.67;1676682;83;21040;-86
2021/08/19 06:42:01;;;;;;;5.25;3.67;;;;;;;19.46;66.29;100282.09;1703729;84;20991;-86
2021/08/19 06:44:28;;;;;;;6.25;3.75;;;;;;;19.45;65.95;100280.34;1676345;83;21796;-86
2021/08/19 06:46:55;;;;;;;6.58;3.30;;;;;;;19.59;66.09;100276.06;1664205;86;21641;-86
2021/08/19 06:49:22;;;;;;;5.42;3.47;;;;;;;19.80;66.03;100280.12;1703970;84;21035;-86
2021/08/19 06:51:51;;;;;;;4.92;2.92;;;;;;;20.03;65.80;100274.31;1703941;84;21394;-86
2021/08/19 06:54:20;;;;;;;11.78;3.62;;;;;;;20.28;65.55;100272.44;1676874;85;20992;-86
2021/08/19 06:56:46;;;;;;;3.47;3.17;;;;;;;20.64;65.43;100273.86;1703683;82;21748;-87
2021/08/19 06:59:13;;;;;;;4.78;3.30;;;;;;;20.91;64.60;100274.95;1676681;83;21608;-86
2021/08/19 07:01:43;;;;;;;7.17;3.02;;;;;;;20.93;63.83;100275.36;1664262;86;20961;-87
2021/08/19 07:04:14;;;;;;;8.45;3.40;;;;;;;20.72;63.44;100278.55;1700988;84;21000;-86
2021/08/19 07:06:42;;;;;;;4.20;3.60;;;;;;;20.62;63.47;100281.04;1703673;84;20972;-86
2021/08/19 07:09:18;;;;;;;3.92;3.10;;;;;;;20.63;63.51;100282.34;1703449;84;40832;-86
2021/08/19 07:11:44;;;;;;;4.05;3.10;;;;;;;20.73;63.29;100271.83;1703490;84;21030;-87
2021/08/19 07:14:11;;;;;;;6.05;3.40;;;;;;;20.89;63.24;100275.02;1703618;84;20984;-86
2021/08/19 07:16:38;;;;;;;6.78;3.30;;;;;;;21.03;62.87;100272.45;1676711;83;21001;-87
2021/08/19 07:19:14;;;;;;;6.75;3.85;;;;;;;21.20;62.77;100266.66;1683393;84;20996;-86
2021/08/19 07:21:40;;;;;;;5.25;3.42;;;;;;;21.51;62.52;100272.06;1703470;84;21716;-87
2021/08/19 07:24:12;;;;;;;4.30;2.98;;;;;;;21.85;62.16;100268.45;1684192;84;20972;-86
2021/08/19 07:26:41;;;;;;;6.10;3.58;;;;;;;22.17;61.77;100271.94;1718027;83;21007;-86
2021/08/19 07:29:13;;;;;;;5.70;3.15;;;;;;;22.45;61.32;100280.07;1676724;83;21063;-87
2021/08/19 07:31:39;;;;;;;4.50;2.85;;;;;;;22.65;60.57;100276.25;1642976;86;21045;-87
2021/08/19 07:34:11;;;;;;;3.65;3.25;;;;;;;22.67;59.94;100278.45;1703701;84;21740;-87
2021/08/19 07:36:39;;;;;;;6.60;3.58;;;;;;;22.85;59.44;100286.81;1650851;85;21504;-87
2021/08/19 07:39:08;;;;;;;10.72;4.40;;;;;;;22.85;59.44;100286.81;1718626;83;21011;-86
2021/08/19 07:41:37;;;;;;;15.95;3.50;;;;;;;22.87;59.09;100281.80;1695625;83;20995;-87
2021/08/19 07:44:05;;;;;;;19.25;3.50;;;;;;;22.91;58.77;100283.92;1703398;84;21072;-86
2021/08/19 07:46:33;;;;;;;9.10;2.85;;;;;;;22.93;58.90;100267.77;1676453;84;21814;-86
2021/08/19 07:49:05;;;;;;;13.85;3.85;;;;;;;23.20;58.56;100270.89;1703535;84;21449;-87
2021/08/19 07:51:31;;;;;;;13.78;3.45;;;;;;;23.41;58.23;100279.12;1702965;84;21012;-87
2021/08/19 07:53:58;;;;;;;12.53;3.25;;;;;;;23.66;58.11;100286.69;1676656;83;21576;-87
2021/08/19 07:56:34;;;;;;;7.28;3.00;;;;;;;23.99;57.63;100278.82;1703672;84;21067;-87
2021/08/19 07:59:00;;;;;;;7.33;2.83;;;;;;;24.13;56.89;100274.25;1676442;83;21777;-87
2021/08/19 08:01:29;;;;;;;5.25;3.67;;;;;;;24.15;56.64;100274.58;1641592;86;21068;-87
2021/08/19 08:03:55;;;;;;;5.12;2.50;;;;;;;24.21;56.32;100274.81;1703850;84;20980;-87
2021/08/19 08:06:22;;;;;;;6.00;2.92;;;;;;;24.10;55.56;100276.59;1676669;84;20961;-87
2021/08/19 08:08:49;;;;;;;2.65;2.25;;;;;;;23.86;55.64;100279.75;1664483;86;21011;-87
2021/08/19 08:11:17;;;;;;;4.55;2.90;;;;;;;23.91;56.03;100282.25;1703548;84;21442;-87
2021/08/19 08:13:46;;;;;;;7.00;2.67;;;;;;;24.05;55.57;100277.23;1703672;84;20972;-86
2021/08/19 08:16:16;;;;;;;4.60;2.83;;;;;;;23.93;55.11;100283.96;1703824;84;21036;-87
2021/08/19 08:18:42;;;;;;;7.60;2.98;;;;;;;23.75;55.07;100277.42;1703425;84;20960;-87
2021/08/19 08:21:13;;;;;;;9.15;2.65;;;;;;;23.59;54.86;100282.94;1676697;84;21514;-87
2021/08/19 08:23:41;;;;;;;4.37;2.37;;;;;;;23.32;54.79;100291.53;1663944;84;21806;-87
2021/08/19 08:26:08;;;;;;;5.30;2.30;;;;;;;23.11;54.80;100292.69;1703653;84;20983;-86
2021/08/19 08:28:38;;;;;;;11.63;2.60;;;;;;;22.98;54.74;100296.69;1676812;83;21043;-87
2021/08/19 08:31:08;;;;;;;4.20;2.60;;;;;;;22.86;54.93;100304.66;1664203;86;21057;-87
2021/08/19 08:33:35;;;;;;;3.02;2.50;;;;;;;22.89;55.30;100307.25;1676594;84;21071;-87
2021/08/19 08:36:04;;;;;;;2.87;2.35;;;;;;;22.98;55.32;100304.73;1664311;86;22408;-87
2021/08/19 08:38:33;;;;;;;6.87;2.85;;;;;;;23.06;55.20;100304.03;1703672;84;21009;-87
2021/08/19 08:41:01;;;;;;;4.03;2.75;;;;;;;23.04;54.75;100297.38;1676469;84;21012;-87
2021/08/19 08:43:28;;;;;;;2.58;2.37;;;;;;;23.22;54.81;100295.88;1664332;86;21247;-86
2021/08/19 08:45:57;;;;;;;14.15;2.83;;;;;;;23.22;54.81;100295.88;1703730;84;20992;-87
2021/08/19 08:48:25;;;;;;;2.33;1.80;;;;;;;23.34;54.63;100308.47;1703454;84;21793;-87
2021/08/19 08:50:59;;;;;;;5.60;2.52;;;;;;;23.54;54.62;100308.64;1676752;83;21007;-87
2021/08/19 08:53:23;;;;;;;4.90;2.22;;;;;;;23.71;53.90;100307.16;1703022;84;21437;-87
2021/08/19 08:55:54;;;;;;;6.40;1.67;;;;;;;23.72;53.51;100308.89;1703821;84;21133;-87
2021/08/19 08:58:23;;;;;;;10.03;2.30;;;;;;;23.89;53.21;100309.17;1676728;83;20992;-87
2021/08/19 09:00:52;;;;;;;4.15;2.25;;;;;;;23.89;52.10;100307.83;1659124;82;21758;-87
2021/08/19 09:03:20;;;;;;;4.87;2.40;;;;;;;23.74;52.08;100318.64;1696690;84;21010;-86
2021/08/19 09:05:52;;;;;;;5.65;2.25;;;;;;;23.72;51.86;100322.33;1696845;84;21480;-87
2021/08/19 09:08:26;;;;;;;8.73;2.02;;;;;;;23.73;51.88;100323.62;1696502;84;21007;-86
2021/08/19 09:10:57;;;;;;;15.55;2.30;;;;;;;23.99;51.98;100320.02;1696632;84;21500;-87
2021/08/19 09:13:27;;;;;;;16.15;2.22;;;;;;;24.29;51.50;100315.75;1696887;84;21812;-87
2021/08/19 09:16:00;;;;;;;6.75;2.30;;;;;;;24.57;51.08;100320.95;1696274;84;21042;-87
2021/08/19 09:18:33;;;;;;;13.75;2.08;;;;;;;24.78;50.62;100331.80;1657994;85;21046;-87
2021/08/19 09:21:00;;;;;;;14.15;2.65;;;;;;;24.81;50.48;100328.95;1692321;83;21507;-87
2021/08/19 09:23:27;;;;;;;7.83;2.12;;;;;;;24.81;50.34;100333.89;1726694;83;21008;-87
2021/08/19 09:25:59;;;;;;;3.22;1.90;;;;;;;24.57;49.95;100334.41;1726551;83;21868;-87
2021/08/19 09:28:29;;;;;;;8.13;2.00;;;;;;;24.39;49.76;100348.55;1724918;82;20976;-87
2021/08/19 09:31:07;;;;;;;4.40;2.47;;;;;;;24.19;49.77;100366.30;1726785;83;21004;-87
2021/08/19 09:33:37;;;;;;;2.77;1.85;;;;;;;23.92;49.49;100380.78;1728765;82;21462;-87
2021/08/19 09:36:07;;;;;;;2.55;1.70;;;;;;;23.31;49.92;100395.36;1706054;82;21075;-87
2021/08/19 09:38:43;;;;;;;1.98;1.52;;;;;;;22.68;50.74;100408.09;1726498;83;20981;-87
2021/08/19 09:41:17;;;;;;;2.27;1.65;;;;;;;21.95;52.14;100421.33;1705672;83;20969;-87
2021/08/19 09:43:51;;;;;;;2.52;1.62;;;;;;;21.19;53.64;100421.45;1725777;83;21446;-87
2021/08/19 09:46:34;;;;;;;3.30;1.50;;;;;;;20.73;54.24;100422.08;1726618;82;21012;-87
2021/08/19 09:49:23;;;;;;;3.75;2.00;;;;;;;20.36;54.56;100430.84;1725407;82;20988;-87
2021/08/19 09:52:11;;;;;;;2.50;1.60;;;;;;;19.97;55.36;100437.37;1711774;83;21743;-87
2021/08/19 09:54:41;;;;;;;3.58;1.50;;;;;;;19.69;56.19;100440.97;1726486;83;20956;-86
2021/08/19 09:57:09;;;;;;;1.98;1.60;;;;;;;19.54;56.85;100435.01;1726672;83;20958;-86
2021/08/19 09:59:40;;;;;;;2.87;1.37;;;;;;;19.41;57.16;100445.00;1726571;82;20996;-86
2021/08/19 10:02:09;;;;;;;2.02;1.40;;;;;;;19.45;57.70;100439.16;1726628;83;21015;-86
2021/08/19 10:04:36;;;;;;;3.12;1.60;;;;;;;19.64;58.06;100444.20;1726599;83;21888;-86
2021/08/19 10:07:03;;;;;;;3.55;1.70;;;;;;;19.87;58.40;100442.02;1726565;83;20982;-86
2021/08/19 10:09:30;;;;;;;2.55;1.65;;;;;;;20.10;58.34;100440.70;1726642;83;21506;-86
2021/08/19 10:12:03;;;;;;;2.15;1.50;;;;;;;20.22;58.25;100444.48;1726054;82;20964;-86
2021/08/19 10:14:33;;;;;;;2.87;1.80;;;;;;;20.23;57.95;100448.03;1725211;83;20976;-86
2021/08/19 10:17:00;;;;;;;1.72;1.55;;;;;;;20.22;57.96;100445.83;1725632;82;21945;-86
2021/08/19 10:19:41;;;;;;;1.95;1.75;;;;;;;20.19;57.94;100444.07;1705596;83;21031;-87
2021/08/19 10:22:11;;;;;;;2.20;2.00;;;;;;;20.18;58.05;100442.80;1726499;82;21480;-86
2021/08/19 10:24:43;;;;;;;9.58;8.60;;;;;;;20.27;58.21;100437.70;1726350;82;21427;-87
2021/08/19 10:27:32;;;;;;;4.47;3.27;;;;;;;20.46;58.06;100440.44;1726580;83;20977;-86
2021/08/19 10:30:02;;;;;;;3.42;2.83;;;;;;;20.56;57.93;100439.79;1726599;82;21755;-86
2021/08/19 10:32:40;;;;;;;6.67;3.25;;;;;;;20.62;57.83;100438.34;1726606;83;20985;-86
2021/08/19 10:35:13;;;;;;;5.12;2.30;;;;;;;20.54;57.67;100429.12;1657055;86;21469;-86
2021/08/19 10:37:48;;;;;;;;;;;;;;;20.48;57.83;100428.39;1659521;86;20984;-87
2021/08/19 10:40:28;;;;;;;5.37;2.77;;;;;;;20.42;57.76;100432.06;1611053;88;20190;-86
2021/08/19 10:43:00;;;;;;;4.55;3.00;;;;;;;20.41;57.93;100431.62;1668843;86;21929;-86
2021/08/19 10:45:36;;;;;;;3.83;3.00;;;;;;;20.39;57.79;100437.00;1666402;83;21026;-86
2021/08/19 10:48:12;;;;;;;5.33;2.80;;;;;;;20.35;57.69;100435.77;1668798;86;20982;-86
2021/08/19 10:50:40;;;;;;;4.25;2.10;;;;;;;20.34;57.92;100443.35;1668963;86;21091;-86
2021/08/19 10:53:23;;;;;;;2.67;2.17;;;;;;;20.37;58.02;100440.16;1669434;86;21049;-86
2021/08/19 10:55:49;;;;;;;3.35;2.95;;;;;;;20.51;58.13;100432.31;1668627;86;21929;-87
2021/08/19 10:58:37;;;;;;;6.12;3.20;;;;;;;20.65;57.79;100434.28;1669279;83;21456;-87
2021/08/19 11:01:21;;;;;;;8.18;3.33;;;;;;;20.93;58.09;100437.22;1646436;86;21604;-87
2021/08/19 11:03:52;;;;;;;2.65;2.40;;;;;;;21.38;57.64;100431.25;1669317;84;21078;-86
2021/08/19 11:06:45;;;;;;;4.12;2.17;;;;;;;21.84;57.21;100434.14;1669394;86;21034;-86
2021/08/19 11:09:20;;;;;;;10.50;2.17;;;;;;;22.16;56.48;100435.93;1669430;83;21743;-87
2021/08/19 11:11:44;;;;;;;3.50;2.80;;;;;;;22.34;55.91;100429.69;1654490;84;21082;-87
2021/08/19 11:14:20;;;;;;;3.17;1.75;;;;;;;22.42;55.33;100431.67;1655834;86;21054;-87
2021/08/19 11:16:57;;;;;;;4.03;2.85;;;;;;;22.40;54.29;100410.73;1656951;86;20992;-86
2021/08/19 11:19:26;;;;;;;4.60;2.40;;;;;;;22.40;54.29;100410.73;1656498;85;21078;-87
2021/08/19 11:21:58;;;;;;;4.65;2.08;;;;;;;22.42;53.80;100435.23;1674287;84;22539;-87
2021/08/19 11:24:27;;;;;;;4.60;2.37;;;;;;;22.22;53.96;100421.48;1669012;84;21026;-87
2021/08/19 11:27:07;;;;;;;2.65;2.22;;;;;;;22.42;53.77;100441.06;1669416;85;21543;-87
2021/08/19 11:29:40;;;;;;;3.30;2.22;;;;;;;22.62;53.57;100435.99;1669190;85;21054;-87
2021/08/19 11:32:13;;;;;;;2.75;1.92;;;;;;;22.74;53.45;100436.55;1669403;86;21006;-87
2021/08/19 11:34:51;;;;;;;4.60;1.98;;;;;;;22.77;52.98;100439.11;1669109;86;20992;-87
2021/08/19 11:37:26;;;;;;;4.35;2.70;;;;;;;22.61;52.03;100436.90;1682609;81;21195;-87